createdAt,value
2019-02-19T00:00:35.341Z,81.39
2019-02-19T00:03:03.926Z,81.77
2019-02-19T00:05:32.484Z,80.76
2019-02-19T00:08:01.081Z,80.30
2019-02-19T00:10:29.633Z,78.05
2019-02-19T00:12:58.221Z,78.79
2019-02-19T00:15:26.802Z,78.37
2019-02-19T00:17:55.382Z,78.68
2019-02-19T00:20:23.970Z,78.42
2019-02-19T00:22:52.524Z,78.50
2019-02-19T00:25:21.167Z,77.74
2019-02-19T00:27:49.765Z,77.09
2019-02-19T00:30:18.350Z,72.48
2019-02-19T00:32:46.945Z,72.93
2019-02-19T00:35:15.530Z,72.32
2019-02-19T00:37:44.090Z,72.34
2019-02-19T00:40:12.666Z,68.34
2019-02-19T00:42:41.238Z,63.88
2019-02-19T00:45:16.455Z,57.90
2019-02-19T00:47:40.130Z,54.81
2019-02-19T00:50:08.802Z,55.65
2019-02-19T00:52:37.352Z,54.04
2019-02-19T00:55:06.024Z,53.75
2019-02-19T00:57:34.611Z,54.13
2019-02-19T01:00:03.150Z,53.62
2019-02-19T01:02:31.699Z,53.31
2019-02-19T01:05:00.360Z,52.51
2019-02-19T01:07:28.967Z,52.90
2019-02-19T01:09:57.516Z,52.90
2019-02-19T01:12:26.086Z,52.64
2019-02-19T01:14:54.666Z,52.79
2019-02-19T01:17:23.219Z,52.69
2019-02-19T01:19:51.775Z,53.14
2019-02-19T01:22:20.351Z,53.15
2019-02-19T01:24:48.928Z,54.02
2019-02-19T01:27:17.549Z,54.53
2019-02-19T01:29:46.096Z,55.24
2019-02-19T01:32:14.645Z,54.88
2019-02-19T01:34:43.224Z,55.72
2019-02-19T01:37:11.814Z,55.27
2019-02-19T01:39:40.359Z,55.39
2019-02-19T01:42:08.910Z,54.42
2019-02-19T01:44:37.489Z,54.01
2019-02-19T01:47:06.034Z,54.03
2019-02-19T01:49:34.634Z,54.25
2019-02-19T01:52:03.194Z,53.80
2019-02-19T01:54:31.745Z,54.59
2019-02-19T01:57:00.655Z,54.75
2019-02-19T01:59:29.239Z,53.93
2019-02-19T02:01:57.790Z,54.69
2019-02-19T02:04:26.336Z,54.65
2019-02-19T02:06:54.921Z,54.52
2019-02-19T02:09:23.494Z,55.44
2019-02-19T02:11:53.306Z,54.70
2019-02-19T02:14:23.366Z,55.23
2019-02-19T02:16:52.774Z,55.05
2019-02-19T02:19:22.151Z,54.75
2019-02-19T02:21:51.533Z,54.91
2019-02-19T02:24:20.122Z,55.58
2019-02-19T02:26:48.724Z,56.14
2019-02-19T02:29:17.747Z,56.49
2019-02-19T02:31:46.290Z,56.28
2019-02-19T02:34:14.826Z,56.86
2019-02-19T02:36:43.743Z,57.69
2019-02-19T02:39:12.286Z,57.87
2019-02-19T02:41:40.876Z,57.41
2019-02-19T02:44:09.414Z,57.38
2019-02-19T02:46:37.957Z,57.48
2019-02-19T02:49:06.536Z,58.05
2019-02-19T02:51:35.085Z,57.33
2019-02-19T02:54:03.671Z,57.22
2019-02-19T02:56:32.231Z,57.09
2019-02-19T02:59:01.059Z,57.34
2019-02-19T03:01:29.629Z,57.37
2019-02-19T03:03:58.221Z,57.44
2019-02-19T03:06:36.139Z,57.75
2019-02-19T03:09:05.303Z,58.18
2019-02-19T03:11:33.872Z,57.95
2019-02-19T03:14:02.483Z,58.75
2019-02-19T03:16:31.015Z,58.28
2019-02-19T03:18:59.874Z,58.08
2019-02-19T03:21:28.473Z,58.23
2019-02-19T03:23:57.051Z,57.87
2019-02-19T03:26:25.623Z,58.11
2019-02-19T03:28:54.220Z,58.18
2019-02-19T03:31:22.784Z,57.89
2019-02-19T03:33:51.329Z,58.09
2019-02-19T03:36:19.918Z,57.74
2019-02-19T03:38:48.477Z,57.70
2019-02-19T03:41:17.019Z,58.34
2019-02-19T03:43:45.597Z,58.80
2019-02-19T03:46:14.210Z,59.39
2019-02-19T03:48:42.772Z,59.11
2019-02-19T03:51:11.332Z,59.40
2019-02-19T03:53:39.920Z,59.89
2019-02-19T03:56:08.463Z,60.27
2019-02-19T03:58:37.023Z,60.60
2019-02-19T04:01:05.613Z,60.98
2019-02-19T04:03:34.169Z,60.74
2019-02-19T04:06:02.723Z,60.64
2019-02-19T04:08:31.347Z,60.87
2019-02-19T04:10:59.904Z,60.78
2019-02-19T04:13:28.499Z,60.55
2019-02-19T04:15:57.415Z,61.42
2019-02-19T04:18:25.965Z,61.28
2019-02-19T04:20:54.551Z,61.19
2019-02-19T04:23:23.389Z,61.50
2019-02-19T04:25:52.007Z,61.10
2019-02-19T04:28:20.918Z,61.22
2019-02-19T04:30:49.469Z,61.24
2019-02-19T04:33:18.021Z,61.78
2019-02-19T04:35:46.604Z,62.72
2019-02-19T04:38:15.153Z,63.22
2019-02-19T04:40:43.732Z,63.51
2019-02-19T04:43:12.281Z,63.98
2019-02-19T04:45:40.831Z,64.71
2019-02-19T04:48:09.417Z,65.46
2019-02-19T04:50:37.973Z,65.49
2019-02-19T04:53:06.531Z,65.89
2019-02-19T04:55:35.691Z,65.98
2019-02-19T04:58:04.305Z,66.42
2019-02-19T05:00:32.873Z,66.64
2019-02-19T05:03:01.457Z,66.72
2019-02-19T05:05:30.079Z,66.79
2019-02-19T05:07:58.629Z,66.99
2019-02-19T05:10:27.184Z,66.33
2019-02-19T05:12:55.818Z,66.93
2019-02-19T05:15:24.388Z,67.18
2019-02-19T05:17:52.932Z,67.34
2019-02-19T05:20:21.486Z,67.64
2019-02-19T05:22:50.081Z,67.87
2019-02-19T05:25:18.649Z,68.18
2019-02-19T05:27:47.225Z,68.63
2019-02-19T05:30:15.833Z,68.79
2019-02-19T05:32:44.422Z,68.99
2019-02-19T05:35:12.983Z,69.12
2019-02-19T05:37:41.584Z,69.25
2019-02-19T05:40:10.163Z,69.17
2019-02-19T05:42:38.724Z,69.37
2019-02-19T05:45:07.650Z,69.77
2019-02-19T05:47:36.251Z,69.83
2019-02-19T05:50:05.343Z,70.63
2019-02-19T05:52:33.890Z,71.00
2019-02-19T05:55:02.467Z,71.90
2019-02-19T05:57:31.052Z,71.89
2019-02-19T05:59:59.677Z,71.70
2019-02-19T06:02:28.314Z,72.56
2019-02-19T06:04:56.866Z,73.04
2019-02-19T06:07:25.470Z,73.01
2019-02-19T06:09:54.019Z,73.32
2019-02-19T06:12:22.628Z,72.99
2019-02-19T06:14:51.514Z,73.55
2019-02-19T06:17:20.072Z,73.73
2019-02-19T06:19:48.650Z,73.94
2019-02-19T06:22:17.243Z,74.20
2019-02-19T06:24:46.118Z,74.26
2019-02-19T06:27:14.715Z,74.27
2019-02-19T06:29:43.268Z,74.87
2019-02-19T06:32:11.845Z,75.10
2019-02-19T06:34:40.407Z,75.21
2019-02-19T06:37:09.000Z,74.92
2019-02-19T06:39:37.579Z,74.75
2019-02-19T06:42:06.130Z,74.49
2019-02-19T06:44:34.740Z,74.63
2019-02-19T06:47:06.858Z,74.39
2019-02-19T06:49:33.613Z,74.43
2019-02-19T06:52:02.189Z,74.52
2019-02-19T06:54:30.746Z,74.34
2019-02-19T06:56:59.355Z,73.99
2019-02-19T06:59:27.917Z,73.94
2019-02-19T07:02:17.581Z,74.05
2019-02-19T07:04:52.721Z,73.79
2019-02-19T07:07:21.322Z,73.68
2019-02-19T07:09:49.889Z,73.78
2019-02-19T07:12:27.561Z,73.81
2019-02-19T07:15:05.087Z,74.00
2019-02-19T07:17:33.654Z,73.98
2019-02-19T07:20:02.228Z,73.96
2019-02-19T07:22:30.832Z,73.93
2019-02-19T07:24:59.451Z,73.40
2019-02-19T07:27:28.397Z,73.44
2019-02-19T07:29:56.989Z,73.34
2019-02-19T07:32:25.595Z,73.38
2019-02-19T07:34:54.154Z,73.45
2019-02-19T07:37:22.714Z,73.29
2019-02-19T07:39:51.290Z,73.36
2019-02-19T07:42:19.866Z,73.45
2019-02-19T07:44:48.444Z,73.61
2019-02-19T07:47:24.441Z,73.67
2019-02-19T07:49:47.314Z,73.34
2019-02-19T07:52:15.875Z,73.59
2019-02-19T07:54:44.441Z,73.29
2019-02-19T07:57:13.053Z,73.42
2019-02-19T07:59:41.623Z,73.12
2019-02-19T08:02:10.176Z,73.05
2019-02-19T08:04:38.772Z,73.17
2019-02-19T08:07:07.329Z,72.98
2019-02-19T08:09:35.882Z,72.87
2019-02-19T08:12:04.454Z,72.99
2019-02-19T08:14:33.036Z,72.98
2019-02-19T08:17:01.669Z,73.32
2019-02-19T08:19:31.435Z,73.58
2019-02-19T08:21:59.986Z,73.32
2019-02-19T08:24:28.560Z,73.16
2019-02-19T08:26:57.557Z,72.17
2019-02-19T08:29:26.142Z,71.21
2019-02-19T08:31:54.752Z,70.90
2019-02-19T08:34:23.296Z,70.61
2019-02-19T08:36:51.951Z,70.86
2019-02-19T08:39:20.538Z,70.62
2019-02-19T08:41:49.089Z,70.62
2019-02-19T08:44:17.664Z,70.49
2019-02-19T08:46:46.210Z,70.40
2019-02-19T08:49:14.795Z,69.94
2019-02-19T08:51:43.361Z,69.82
2019-02-19T08:54:11.922Z,69.25
2019-02-19T08:56:40.513Z,68.83
2019-02-19T08:59:09.451Z,68.47
2019-02-19T09:01:38.020Z,68.88
2019-02-19T09:04:06.575Z,68.38
2019-02-19T09:06:35.184Z,68.00
2019-02-19T09:09:04.962Z,68.27
2019-02-19T09:11:33.515Z,67.67
2019-02-19T09:14:02.113Z,66.62
2019-02-19T09:16:30.661Z,67.16
2019-02-19T09:18:59.240Z,67.29
2019-02-19T09:21:27.825Z,66.68
2019-02-19T09:23:58.388Z,67.24
2019-02-19T09:26:26.709Z,66.43
2019-02-19T09:28:55.330Z,66.97
2019-02-19T09:31:23.908Z,65.98
2019-02-19T09:33:52.491Z,66.27
2019-02-19T09:36:21.053Z,66.11
2019-02-19T09:38:49.633Z,65.36
2019-02-19T09:41:18.534Z,65.36
2019-02-19T09:43:47.124Z,65.14
2019-02-19T09:46:15.715Z,66.00
2019-02-19T09:48:44.282Z,64.93
2019-02-19T09:51:16.231Z,64.81
2019-02-19T09:53:44.854Z,63.89
2019-02-19T09:56:13.409Z,63.71
2019-02-19T09:58:42.002Z,63.44
2019-02-19T10:01:10.871Z,63.85
2019-02-19T10:03:39.823Z,63.75
2019-02-19T10:06:22.032Z,64.79
2019-02-19T10:08:50.949Z,65.59
2019-02-19T10:11:19.554Z,66.11
2019-02-19T10:13:48.160Z,66.32
2019-02-19T10:16:16.745Z,66.40
2019-02-19T10:18:45.317Z,65.32
2019-02-19T10:21:13.950Z,63.54
2019-02-19T10:23:42.518Z,62.44
2019-02-19T10:26:11.077Z,61.25
2019-02-19T10:28:39.652Z,59.35
2019-02-19T10:31:08.261Z,58.99
2019-02-19T10:33:36.828Z,59.07
2019-02-19T10:36:05.438Z,59.54
2019-02-19T10:38:34.005Z,60.38
2019-02-19T10:41:02.591Z,60.77
2019-02-19T10:43:31.169Z,60.58
2019-02-19T10:45:59.756Z,58.33
2019-02-19T10:48:28.346Z,57.20
2019-02-19T10:50:56.939Z,57.91
2019-02-19T10:53:25.498Z,58.63
2019-02-19T10:55:54.092Z,59.58
2019-02-19T10:58:23.342Z,58.98
2019-02-19T11:00:52.031Z,58.88
2019-02-19T11:03:20.599Z,59.23
2019-02-19T11:05:49.185Z,57.33
2019-02-19T11:08:17.758Z,57.20
2019-02-19T11:10:46.362Z,57.22
2019-02-19T11:13:14.961Z,57.52
2019-02-19T11:15:43.523Z,57.95
2019-02-19T11:18:12.151Z,58.97
2019-02-19T11:20:40.750Z,59.40
2019-02-19T11:23:09.707Z,58.47
2019-02-19T11:25:38.309Z,58.79
2019-02-19T11:28:06.918Z,59.39
2019-02-19T11:30:35.678Z,58.92
2019-02-19T11:33:04.226Z,59.10
2019-02-19T11:38:08.142Z,57.41
2019-02-19T11:40:38.016Z,57.92
2019-02-19T11:43:07.842Z,58.39
2019-02-19T11:45:36.799Z,58.01
2019-02-19T11:48:05.404Z,57.10
2019-02-19T11:50:34.459Z,57.84
2019-02-19T11:53:03.036Z,57.37
2019-02-19T11:55:31.619Z,58.25
2019-02-19T11:58:01.525Z,57.83
2019-02-19T12:00:34.983Z,58.27
2019-02-19T12:03:03.572Z,58.59
2019-02-19T12:05:34.566Z,58.00
2019-02-19T12:08:03.166Z,57.96
2019-02-19T12:10:31.732Z,57.48
2019-02-19T12:13:00.633Z,55.32
2019-02-19T12:15:35.196Z,56.07
2019-02-19T12:17:59.878Z,57.04
2019-02-19T12:20:30.783Z,56.21
2019-02-19T12:23:00.040Z,57.43
2019-02-19T12:25:28.595Z,57.71
2019-02-19T12:27:57.177Z,56.83
2019-02-19T12:30:26.103Z,56.30
2019-02-19T12:32:54.669Z,52.62
2019-02-19T12:35:23.279Z,52.27
2019-02-19T12:37:52.168Z,53.45
2019-02-19T12:40:21.382Z,52.06
2019-02-19T12:42:50.064Z,51.70
2019-02-19T12:45:18.623Z,52.75
2019-02-19T12:47:47.191Z,54.88
2019-02-19T12:50:17.173Z,54.78
2019-02-19T12:52:46.039Z,54.78
2019-02-19T12:55:14.594Z,55.81
2019-02-19T12:57:43.167Z,57.15
2019-02-19T13:00:13.829Z,57.11
2019-02-19T13:02:43.995Z,55.84
2019-02-19T13:05:13.054Z,55.59
2019-02-19T13:07:41.667Z,55.20
2019-02-19T13:10:10.392Z,55.61
2019-02-19T13:12:40.244Z,55.17
2019-02-19T13:15:13.711Z,55.32
2019-02-19T13:17:42.982Z,55.40
2019-02-19T13:20:13.111Z,55.18
2019-02-19T13:22:42.797Z,55.04
2019-02-19T13:25:13.600Z,56.09
2019-02-19T13:27:43.205Z,55.44
2019-02-19T13:30:14.415Z,55.07
2019-02-19T13:32:43.594Z,55.63
2019-02-19T13:35:13.883Z,55.02
2019-02-19T13:37:42.532Z,53.01
2019-02-19T13:40:12.000Z,49.94
2019-02-19T13:42:41.092Z,47.18
2019-02-19T13:45:11.521Z,48.00
2019-02-19T13:47:40.486Z,48.71
2019-02-19T13:50:11.967Z,50.10
2019-02-19T13:52:59.558Z,52.07
2019-02-19T13:55:32.054Z,52.09
2019-02-19T13:58:00.650Z,50.67
2019-02-19T14:00:30.018Z,49.82
2019-02-19T14:02:58.598Z,47.90
2019-02-19T14:05:27.630Z,48.06
2019-02-19T14:07:56.606Z,49.96
2019-02-19T14:10:25.444Z,51.55
2019-02-19T14:12:54.001Z,52.78
2019-02-19T14:15:57.373Z,53.44
2019-02-19T14:18:45.107Z,53.88
2019-02-19T14:21:34.927Z,53.74
2019-02-19T14:24:22.522Z,53.50
2019-02-19T14:27:22.217Z,53.55
2019-02-19T14:30:19.085Z,53.09
2019-02-19T14:33:05.895Z,53.30
2019-02-19T14:35:59.829Z,52.59
2019-02-19T14:38:46.372Z,53.53
2019-02-19T14:41:32.868Z,52.98
2019-02-19T14:44:15.325Z,53.10
2019-02-19T14:47:09.236Z,53.38
2019-02-19T14:49:52.309Z,53.34
2019-02-19T14:52:36.797Z,53.33
2019-02-19T14:55:24.451Z,54.01
2019-02-19T14:58:12.758Z,53.91
2019-02-19T15:00:59.726Z,54.54
2019-02-19T15:04:05.665Z,54.73
2019-02-19T15:06:56.089Z,54.53
2019-02-19T15:09:42.597Z,54.82
2019-02-19T15:12:29.228Z,54.21
2019-02-19T15:15:13.508Z,55.08
2019-02-19T15:17:52.990Z,55.18
2019-02-19T15:20:34.476Z,55.38
2019-02-19T15:23:33.157Z,55.46
2019-02-19T15:26:08.837Z,55.63
2019-02-19T15:29:15.160Z,55.73
2019-02-19T15:31:51.477Z,55.99
2019-02-19T15:34:33.431Z,56.58
2019-02-19T15:37:21.745Z,56.24
2019-02-19T15:40:12.851Z,56.11
2019-02-19T15:43:05.193Z,56.00
2019-02-19T15:45:53.190Z,56.30
2019-02-19T15:48:50.065Z,56.19
2019-02-19T15:51:32.906Z,56.34
2019-02-19T15:54:29.816Z,56.85
2019-02-19T15:57:04.192Z,56.83
2019-02-19T15:59:51.248Z,57.66
2019-02-19T16:02:46.035Z,57.63
2019-02-19T16:05:32.379Z,57.14
2019-02-19T16:08:26.128Z,56.80
2019-02-19T16:11:19.657Z,56.90
2019-02-19T16:13:56.310Z,57.11
2019-02-19T16:16:38.336Z,57.10
2019-02-19T16:19:37.828Z,57.41
2019-02-19T16:22:21.885Z,57.87
2019-02-19T16:25:02.118Z,57.84
2019-02-19T16:27:52.797Z,58.23
2019-02-19T16:30:33.499Z,57.92
2019-02-19T16:33:22.171Z,57.83
2019-02-19T16:35:57.888Z,57.19
2019-02-19T16:38:40.513Z,57.55
2019-02-19T16:41:21.799Z,58.43
2019-02-19T16:44:08.416Z,57.78
2019-02-19T16:46:44.256Z,57.89
2019-02-19T16:49:32.163Z,58.11
2019-02-19T16:52:08.252Z,58.28
2019-02-19T16:54:44.919Z,57.87
2019-02-19T16:57:31.771Z,57.94
2019-02-19T17:00:14.651Z,58.22
2019-02-19T17:02:57.303Z,58.54
2019-02-19T17:05:42.551Z,58.31
2019-02-19T17:08:18.844Z,58.62
2019-02-19T17:10:57.627Z,58.58
2019-02-19T17:13:44.185Z,58.52
2019-02-19T17:16:34.224Z,58.64
2019-02-19T17:19:09.619Z,58.84
2019-02-19T17:22:06.328Z,58.87
2019-02-19T17:24:54.313Z,58.92
2019-02-19T17:27:35.332Z,58.34
2019-02-19T17:30:14.595Z,58.39
2019-02-19T17:32:50.655Z,58.63
2019-02-19T17:35:43.984Z,58.07
2019-02-19T17:38:30.287Z,57.95
2019-02-19T17:41:14.283Z,58.36
2019-02-19T17:43:52.416Z,58.27
2019-02-19T17:46:51.978Z,57.92
2019-02-19T17:49:45.318Z,58.11
2019-02-19T17:52:31.457Z,57.93
2019-02-19T17:55:37.529Z,57.77
2019-02-19T17:58:14.791Z,58.27
2019-02-19T18:00:53.199Z,58.24
2019-02-19T18:03:36.437Z,58.64
2019-02-19T18:06:12.393Z,58.71
2019-02-19T18:09:09.320Z,58.65
2019-02-19T18:11:56.369Z,59.12
2019-02-19T18:14:35.261Z,58.88
2019-02-19T18:17:34.804Z,58.91
2019-02-19T18:20:03.367Z,59.22
2019-02-19T18:22:32.220Z,59.47
2019-02-19T18:25:00.845Z,59.14
2019-02-19T18:27:29.401Z,59.10
2019-02-19T18:29:57.967Z,59.19
2019-02-19T18:32:26.560Z,59.28
2019-02-19T18:34:55.115Z,59.25
2019-02-19T18:37:23.656Z,59.21
2019-02-19T18:39:52.233Z,59.56
2019-02-19T18:42:21.179Z,59.64
2019-02-19T18:44:49.756Z,59.46
2019-02-19T18:47:18.303Z,60.12
2019-02-19T18:49:46.928Z,60.05
2019-02-19T18:52:15.471Z,59.82
2019-02-19T18:54:44.027Z,59.95
2019-02-19T18:57:12.952Z,60.04
2019-02-19T18:59:43.019Z,59.94
2019-02-19T19:02:11.563Z,60.06
2019-02-19T19:04:40.119Z,60.78
2019-02-19T19:07:08.706Z,60.17
2019-02-19T19:09:37.270Z,60.51
2019-02-19T19:12:05.863Z,60.09
2019-02-19T19:14:34.421Z,59.96
2019-02-19T19:17:03.000Z,59.71
2019-02-19T19:19:31.591Z,60.23
2019-02-19T19:22:00.161Z,60.01
2019-02-19T19:24:28.821Z,59.91
2019-02-19T19:26:57.372Z,59.73
2019-02-19T19:29:25.922Z,59.40
2019-02-19T19:31:54.533Z,59.61
2019-02-19T19:34:23.084Z,60.22
2019-02-19T19:36:51.638Z,60.23
2019-02-19T19:39:20.213Z,60.12
2019-02-19T19:41:48.790Z,60.36
2019-02-19T19:44:17.367Z,60.53
2019-02-19T19:46:45.963Z,60.87
2019-02-19T19:49:14.520Z,61.34
2019-02-19T19:51:43.072Z,61.88
2019-02-19T19:54:11.659Z,61.43
2019-02-19T19:56:40.215Z,61.41
2019-02-19T19:59:08.805Z,61.61
2019-02-19T20:01:37.360Z,61.90
2019-02-19T20:04:05.912Z,62.38
2019-02-19T20:06:34.490Z,62.38
2019-02-19T20:09:04.629Z,62.95
2019-02-19T20:11:33.180Z,63.42
2019-02-19T20:14:01.829Z,62.92
2019-02-19T20:16:30.441Z,63.08
2019-02-19T20:18:58.995Z,63.36
2019-02-19T20:21:27.567Z,62.78
2019-02-19T20:23:56.145Z,63.35
2019-02-19T20:26:24.695Z,63.01
2019-02-19T20:28:53.297Z,63.14
2019-02-19T20:31:21.865Z,62.66
2019-02-19T20:33:50.404Z,62.33
2019-02-19T20:36:18.982Z,62.30
2019-02-19T20:38:47.536Z,62.03
2019-02-19T20:41:16.155Z,62.11
2019-02-19T20:43:44.753Z,62.37
2019-02-19T20:46:13.383Z,61.96
2019-02-19T20:48:42.071Z,61.35
2019-02-19T20:51:10.627Z,61.40
2019-02-19T20:53:39.203Z,61.78
2019-02-19T20:56:07.724Z,61.96
2019-02-19T20:58:36.291Z,62.68
2019-02-19T21:01:04.844Z,62.47
2019-02-19T21:03:35.802Z,62.90
2019-02-19T21:06:04.363Z,62.50
2019-02-19T21:08:32.947Z,62.90
2019-02-19T21:11:01.528Z,63.60
2019-02-19T21:13:30.116Z,63.82
2019-02-19T21:15:58.674Z,64.11
2019-02-19T21:18:28.227Z,64.17
2019-02-19T21:20:56.802Z,64.86
2019-02-19T21:23:25.353Z,64.61
2019-02-19T21:25:53.966Z,64.66
2019-02-19T21:28:22.535Z,66.14
2019-02-19T21:30:51.086Z,66.83
2019-02-19T21:33:19.662Z,66.29
2019-02-19T21:35:48.236Z,66.38
2019-02-19T21:38:16.843Z,66.58
2019-02-19T21:40:45.409Z,66.64
2019-02-19T21:43:13.993Z,67.03
2019-02-19T21:45:42.606Z,67.91
2019-02-19T21:48:11.176Z,67.21
2019-02-19T21:50:39.728Z,66.47
2019-02-19T21:53:08.335Z,67.46
2019-02-19T21:55:36.898Z,68.75
2019-02-19T21:58:06.576Z,68.95
2019-02-19T22:00:35.363Z,69.25
2019-02-19T22:03:03.928Z,69.92
2019-02-19T22:05:32.495Z,68.76
2019-02-19T22:08:01.091Z,68.97
2019-02-19T22:10:29.678Z,68.50
2019-02-19T22:12:58.486Z,67.64
2019-02-19T22:15:27.371Z,68.11
2019-02-19T22:17:56.915Z,68.70
2019-02-19T22:20:38.844Z,69.00
2019-02-19T22:23:08.125Z,69.50
2019-02-19T22:25:37.067Z,70.64
2019-02-19T22:28:06.020Z,70.91
2019-02-19T22:30:34.981Z,69.91
2019-02-19T22:33:04.975Z,69.61
2019-02-19T22:35:33.767Z,69.69
2019-02-19T22:38:02.601Z,69.79
2019-02-19T22:40:31.405Z,69.50
2019-02-19T22:43:00.171Z,69.62
2019-02-19T22:45:28.999Z,69.47
2019-02-19T22:47:57.787Z,69.68
2019-02-19T22:50:26.553Z,69.58
2019-02-19T22:52:56.111Z,69.79
2019-02-19T22:55:32.803Z,70.05
2019-02-19T22:58:01.596Z,70.13
2019-02-19T23:00:52.106Z,70.09
2019-02-19T23:03:24.767Z,70.67
2019-02-19T23:05:53.623Z,71.12
2019-02-19T23:08:23.356Z,70.63
2019-02-19T23:10:52.137Z,71.21
2019-02-19T23:13:20.948Z,71.94
2019-02-19T23:15:49.780Z,72.41
2019-02-19T23:18:18.813Z,72.64
2019-02-19T23:20:47.625Z,72.93
2019-02-19T23:23:16.411Z,73.34
2019-02-19T23:25:45.251Z,73.19
2019-02-19T23:28:14.045Z,73.58
2019-02-19T23:30:42.801Z,73.92
2019-02-19T23:33:11.647Z,73.65
2019-02-19T23:35:45.083Z,73.82
2019-02-19T23:38:13.867Z,74.34
2019-02-19T23:40:42.659Z,73.37
2019-02-19T23:43:11.418Z,73.32
2019-02-19T23:45:40.289Z,73.09
2019-02-19T23:48:09.252Z,73.21
2019-02-19T23:50:38.010Z,73.25
2019-02-19T23:53:06.806Z,74.21
2019-02-19T23:55:35.641Z,74.23
2019-02-19T23:58:04.498Z,74.61
